Time;durP1;ratioP1;P1;durP2;ratioP2;P2;SDS_P1;SDS_P2;PMS_P1;PMS_P2;Temp;Humidity;BMP_temperature;BMP_pressure;BME280_temperature;BME280_humidity;BME280_pressure;Samples;Min_cycle;Max_cycle;Signal;HPM_P1;HPM_P2
2022/12/08 00:00:26;;;;;;;9.18;2.05;;;;;;;;;;5071901;28;20517;-72
2022/12/08 00:02:52;;;;;;;9.18;1.35;;;;;;;;;;5071043;28;20512;-72
2022/12/08 00:10:48;;;;;;;7.85;1.58;;;;;;;;;;5070990;28;20089;-72
2022/12/08 00:13:14;;;;;;;5.97;1.40;;;;;;;;;;5071023;28;20040;-72
2022/12/08 00:15:40;;;;;;;8.57;1.52;;;;;;;;;;5054735;28;20044;-72
2022/12/08 00:18:06;;;;;;;7.45;1.40;;;;;;;;;;5070793;28;20143;-72
2022/12/08 00:20:32;;;;;;;7.30;1.20;;;;;;;;;;5071200;28;20098;-72
2022/12/08 00:22:58;;;;;;;5.53;1.30;;;;;;;;;;5070768;28;20047;-72
2022/12/08 00:25:24;;;;;;;4.35;1.13;;;;;;;;;;5071069;28;20040;-72
2022/12/08 00:27:50;;;;;;;7.05;1.27;;;;;;;;;;5054178;28;20044;-72
2022/12/08 00:30:16;;;;;;;5.45;1.40;;;;;;;;;;5072240;28;20458;-72
2022/12/08 00:32:42;;;;;;;7.45;1.10;;;;;;;;;;5054163;28;20097;-72
2022/12/08 00:35:08;;;;;;;7.15;1.48;;;;;;;;;;5067633;28;20072;-72
2022/12/08 00:37:34;;;;;;;5.13;1.33;;;;;;;;;;5054591;28;20474;-72
2022/12/08 00:40:00;;;;;;;7.63;1.40;;;;;;;;;;5070564;28;20091;-72
2022/12/08 00:42:26;;;;;;;5.55;1.30;;;;;;;;;;5071578;28;20108;-72
2022/12/08 00:44:53;;;;;;;5.30;1.20;;;;;;;;;;5053664;28;20052;-72
2022/12/08 00:47:19;;;;;;;3.33;1.02;;;;;;;;;;5072291;28;20040;-72
2022/12/08 00:49:45;;;;;;;7.43;1.20;;;;;;;;;;5070899;28;20055;-72
2022/12/08 00:52:12;;;;;;;5.88;1.02;;;;;;;;;;5070848;28;20123;-72
2022/12/08 00:54:38;;;;;;;5.72;1.10;;;;;;;;;;5070795;28;20122;-72
2022/12/08 00:57:04;;;;;;;4.40;1.05;;;;;;;;;;5070491;28;20123;-72
2022/12/08 00:59:30;;;;;;;6.63;1.00;;;;;;;;;;5070662;28;20043;-72
2022/12/08 01:01:56;;;;;;;4.70;1.00;;;;;;;;;;5054107;28;20468;-72
2022/12/08 01:04:22;;;;;;;5.65;1.20;;;;;;;;;;5070379;28;20127;-72
2022/12/08 01:06:49;;;;;;;4.72;1.08;;;;;;;;;;5056741;28;20075;-72
2022/12/08 01:09:15;;;;;;;4.35;1.13;;;;;;;;;;5071943;28;20123;-72
2022/12/08 01:11:43;;;;;;;3.67;0.93;;;;;;;;;;5070700;28;20036;-72
2022/12/08 01:14:09;;;;;;;7.38;0.90;;;;;;;;;;5070380;28;20058;-72
2022/12/08 01:16:36;;;;;;;3.55;0.80;;;;;;;;;;5070619;28;20044;-72
2022/12/08 01:19:02;;;;;;;4.55;1.60;;;;;;;;;;5053583;28;20040;-72
2022/12/08 01:21:28;;;;;;;4.25;0.70;;;;;;;;;;5071110;28;20583;-72
2022/12/08 01:23:54;;;;;;;2.72;0.73;;;;;;;;;;5058387;28;20032;-72
2022/12/08 01:26:21;;;;;;;4.85;0.80;;;;;;;;;;5070406;28;20041;-72
2022/12/08 01:28:47;;;;;;;2.38;0.70;;;;;;;;;;5070509;28;20037;-72
2022/12/08 01:31:15;;;;;;;6.03;1.15;;;;;;;;;;5069869;28;20037;-71
2022/12/08 01:33:41;;;;;;;2.70;0.80;;;;;;;;;;5067316;28;20064;-71
2022/12/08 01:36:08;;;;;;;3.95;0.63;;;;;;;;;;5053270;28;20045;-71
2022/12/08 01:38:34;;;;;;;3.20;0.95;;;;;;;;;;5070283;28;20037;-71
2022/12/08 01:41:01;;;;;;;4.22;0.80;;;;;;;;;;5053294;28;20036;-71
2022/12/08 01:43:45;;;;;;;2.53;0.70;;;;;;;;;;5055032;28;20043;-71
2022/12/08 01:46:11;;;;;;;3.97;0.70;;;;;;;;;;5073589;28;20041;-71
2022/12/08 01:48:37;;;;;;;2.92;0.70;;;;;;;;;;5074060;28;20045;-71
2022/12/08 01:51:03;;;;;;;3.05;0.70;;;;;;;;;;5073838;28;20500;-71
2022/12/08 01:53:34;;;;;;;2.97;0.60;;;;;;;;;;5057348;28;20128;-71
2022/12/08 01:56:04;;;;;;;4.85;0.80;;;;;;;;;;5056676;28;20051;-71
2022/12/08 01:58:43;;;;;;;3.70;0.80;;;;;;;;;;5075526;28;20043;-71
2022/12/08 02:01:09;;;;;;;6.30;0.82;;;;;;;;;;5073194;28;20039;-71
2022/12/08 02:03:58;;;;;;;2.33;0.70;;;;;;;;;;5073712;28;20063;-71
2022/12/08 02:06:26;;;;;;;1.73;0.68;;;;;;;;;;5054639;28;20499;-71
2022/12/08 02:08:54;;;;;;;5.40;0.73;;;;;;;;;;5073774;28;20036;-71
2022/12/08 02:11:20;;;;;;;2.83;0.60;;;;;;;;;;5073743;28;20117;-71
2022/12/08 02:13:47;;;;;;;6.43;1.00;;;;;;;;;;5056835;28;20506;-72
2022/12/08 02:16:32;;;;;;;3.90;1.20;;;;;;;;;;5073241;28;20497;-71
2022/12/08 02:19:16;;;;;;;2.38;0.60;;;;;;;;;;5051042;28;20032;-71
2022/12/08 02:22:06;;;;;;;3.97;0.60;;;;;;;;;;5073697;28;20051;-71
2022/12/08 02:24:32;;;;;;;5.50;0.80;;;;;;;;;;5038546;28;20442;-71
2022/12/08 02:26:58;;;;;;;7.30;0.80;;;;;;;;;;5073152;28;20595;-71
2022/12/08 02:29:44;;;;;;;3.47;0.70;;;;;;;;;;5056704;28;20056;-72
2022/12/08 02:32:29;;;;;;;3.97;0.70;;;;;;;;;;5055759;28;20076;-71
2022/12/08 02:35:10;;;;;;;3.10;0.73;;;;;;;;;;5070399;28;20056;-72
2022/12/08 02:37:55;;;;;;;3.70;0.70;;;;;;;;;;5050176;28;20040;-72
2022/12/08 02:40:27;;;;;;;1.80;0.65;;;;;;;;;;5073920;28;20067;-72
2022/12/08 02:42:58;;;;;;;2.83;0.70;;;;;;;;;;5073464;28;20036;-72
2022/12/08 02:45:24;;;;;;;3.22;0.70;;;;;;;;;;5074488;28;20048;-72
2022/12/08 02:47:51;;;;;;;4.75;0.90;;;;;;;;;;5072886;28;20044;-71
2022/12/08 02:50:18;;;;;;;7.45;0.90;;;;;;;;;;5073021;28;20119;-72
2022/12/08 02:52:45;;;;;;;6.07;0.88;;;;;;;;;;5073237;28;20040;-72
2022/12/08 02:55:14;;;;;;;4.90;0.70;;;;;;;;;;5072511;28;20381;-72
2022/12/08 02:57:59;;;;;;;3.03;0.60;;;;;;;;;;5072773;28;20033;-72
2022/12/08 03:00:27;;;;;;;3.50;0.70;;;;;;;;;;5071949;28;20040;-72
2022/12/08 03:02:59;;;;;;;4.35;1.05;;;;;;;;;;5050454;28;20119;-72
2022/12/08 03:05:37;;;;;;;4.75;0.63;;;;;;;;;;5051727;28;20045;-72
2022/12/08 03:08:19;;;;;;;2.25;0.70;;;;;;;;;;5085524;28;20059;-72
2022/12/08 03:11:03;;;;;;;8.25;1.15;;;;;;;;;;5073742;28;20086;-72
2022/12/08 03:13:33;;;;;;;5.47;0.70;;;;;;;;;;5073769;28;20047;-72
2022/12/08 03:16:01;;;;;;;4.45;0.70;;;;;;;;;;5106287;28;20079;-72
2022/12/08 03:18:29;;;;;;;3.28;0.45;;;;;;;;;;5073086;28;20036;-72
2022/12/08 03:20:55;;;;;;;3.30;0.50;;;;;;;;;;5072618;28;20452;-72
2022/12/08 03:23:22;;;;;;;4.30;0.60;;;;;;;;;;5073368;28;20040;-72
2022/12/08 03:25:51;;;;;;;2.75;0.70;;;;;;;;;;5073773;28;20047;-72
2022/12/08 03:28:17;;;;;;;2.10;0.45;;;;;;;;;;5072006;28;20075;-72
2022/12/08 03:30:45;;;;;;;3.83;0.80;;;;;;;;;;5053634;28;20444;-72
2022/12/08 03:33:15;;;;;;;5.30;0.68;;;;;;;;;;5052652;28;20041;-72
2022/12/08 03:35:43;;;;;;;2.33;0.70;;;;;;;;;;5051985;28;20048;-72
2022/12/08 03:38:13;;;;;;;5.00;0.50;;;;;;;;;;5068413;28;20148;-72
2022/12/08 03:40:39;;;;;;;1.17;0.50;;;;;;;;;;5052022;28;20041;-72
2022/12/08 03:43:06;;;;;;;2.13;0.50;;;;;;;;;;5053229;28;20048;-72
2022/12/08 03:45:32;;;;;;;3.50;0.47;;;;;;;;;;5035323;28;20044;-72
2022/12/08 03:47:58;;;;;;;1.15;0.45;;;;;;;;;;5051502;28;20037;-72
2022/12/08 03:50:24;;;;;;;2.72;0.63;;;;;;;;;;5052871;28;20067;-72
2022/12/08 03:52:50;;;;;;;4.25;0.57;;;;;;;;;;5052060;28;20490;-72
2022/12/08 03:55:17;;;;;;;4.75;0.60;;;;;;;;;;5051117;28;20064;-72
2022/12/08 03:57:43;;;;;;;2.92;0.52;;;;;;;;;;5052012;28;20501;-72
2022/12/08 04:00:12;;;;;;;3.50;0.73;;;;;;;;;;5052338;28;20532;-72
2022/12/08 04:02:38;;;;;;;2.42;0.50;;;;;;;;;;5035035;28;20121;-72
2022/12/08 04:05:04;;;;;;;3.33;0.60;;;;;;;;;;5051275;28;20048;-72
2022/12/08 04:07:30;;;;;;;3.17;0.60;;;;;;;;;;5050335;28;20048;-72
2022/12/08 04:09:56;;;;;;;4.13;0.82;;;;;;;;;;5052757;28;20081;-72
2022/12/08 04:12:22;;;;;;;3.85;0.65;;;;;;;;;;5052220;28;20051;-72
2022/12/08 04:14:48;;;;;;;4.32;0.68;;;;;;;;;;5051345;28;20041;-72
2022/12/08 04:17:14;;;;;;;4.43;0.60;;;;;;;;;;5051050;28;20049;-72
2022/12/08 04:19:40;;;;;;;3.30;0.57;;;;;;;;;;5067843;28;20048;-72
2022/12/08 04:22:07;;;;;;;4.18;0.60;;;;;;;;;;5051229;28;20118;-72
2022/12/08 04:24:33;;;;;;;4.93;0.60;;;;;;;;;;5051893;28;20043;-72
2022/12/08 04:26:59;;;;;;;3.00;0.70;;;;;;;;;;5067920;28;20047;-72
2022/12/08 04:29:25;;;;;;;4.32;0.70;;;;;;;;;;5067282;28;20071;-72
2022/12/08 04:31:51;;;;;;;4.38;0.70;;;;;;;;;;5052342;28;20041;-72
2022/12/08 04:34:17;;;;;;;4.38;0.60;;;;;;;;;;5041125;28;20053;-72
2022/12/08 04:36:43;;;;;;;2.63;0.57;;;;;;;;;;5067981;28;20048;-72
2022/12/08 04:39:09;;;;;;;3.35;0.47;;;;;;;;;;5051030;28;20045;-72
2022/12/08 04:41:35;;;;;;;3.60;0.40;;;;;;;;;;5050530;28;20132;-72
2022/12/08 04:44:01;;;;;;;2.70;0.50;;;;;;;;;;5052300;28;20036;-72
2022/12/08 04:46:27;;;;;;;3.58;0.55;;;;;;;;;;5050499;28;20048;-72
2022/12/08 04:48:53;;;;;;;2.35;0.50;;;;;;;;;;5052138;28;20041;-72
2022/12/08 04:51:20;;;;;;;4.63;0.70;;;;;;;;;;5051569;28;20094;-72
2022/12/08 04:53:46;;;;;;;2.97;0.50;;;;;;;;;;5050798;28;20048;-72
2022/12/08 04:56:13;;;;;;;4.95;0.63;;;;;;;;;;5050786;28;20048;-72
2022/12/08 04:58:39;;;;;;;4.90;0.60;;;;;;;;;;5050229;28;20158;-72
2022/12/08 05:01:05;;;;;;;2.47;0.50;;;;;;;;;;5043796;28;20054;-71
2022/12/08 05:03:31;;;;;;;3.30;0.60;;;;;;;;;;5080743;28;20055;-72
2022/12/08 05:05:59;;;;;;;2.85;0.60;;;;;;;;;;5050231;28;20037;-72
2022/12/08 05:08:25;;;;;;;2.55;0.50;;;;;;;;;;5050373;28;20063;-72
2022/12/08 05:10:51;;;;;;;2.33;0.70;;;;;;;;;;5084424;28;20044;-72
2022/12/08 05:13:17;;;;;;;1.85;0.65;;;;;;;;;;5051791;28;20041;-72
2022/12/08 05:15:43;;;;;;;6.18;0.68;;;;;;;;;;5056265;28;20045;-72
2022/12/08 05:18:10;;;;;;;3.78;0.70;;;;;;;;;;5054711;28;20037;-72
2022/12/08 05:20:36;;;;;;;2.22;0.50;;;;;;;;;;5067997;28;20032;-72
2022/12/08 05:23:02;;;;;;;1.52;0.50;;;;;;;;;;5054707;28;20069;-72
2022/12/08 05:25:28;;;;;;;3.40;0.68;;;;;;;;;;5054552;28;20043;-72
2022/12/08 05:27:54;;;;;;;2.92;0.60;;;;;;;;;;5054537;28;20238;-72
2022/12/08 05:30:20;;;;;;;3.40;0.47;;;;;;;;;;5053964;28;20041;-72
2022/12/08 05:32:46;;;;;;;2.17;0.40;;;;;;;;;;5054750;28;20041;-73
2022/12/08 05:35:12;;;;;;;5.13;0.50;;;;;;;;;;5055590;28;20048;-72
2022/12/08 05:37:38;;;;;;;1.40;0.40;;;;;;;;;;5053965;28;20040;-73
2022/12/08 05:40:05;;;;;;;2.65;0.70;;;;;;;;;;5054557;28;20037;-72
2022/12/08 05:42:31;;;;;;;4.43;0.52;;;;;;;;;;5053914;28;20059;-72
2022/12/08 05:44:57;;;;;;;4.25;0.80;;;;;;;;;;5054347;28;20490;-72
2022/12/08 05:47:23;;;;;;;4.03;0.50;;;;;;;;;;5054490;28;20071;-73
2022/12/08 05:49:49;;;;;;;2.25;0.50;;;;;;;;;;5037389;28;20107;-72
2022/12/08 05:52:15;;;;;;;4.57;0.57;;;;;;;;;;5037472;28;20056;-72
2022/12/08 05:54:41;;;;;;;4.75;0.60;;;;;;;;;;5054650;28;20047;-72
2022/12/08 05:57:08;;;;;;;3.22;0.70;;;;;;;;;;5055531;28;20041;-72
2022/12/08 05:59:34;;;;;;;5.07;0.50;;;;;;;;;;5055111;28;20120;-72
2022/12/08 06:02:00;;;;;;;3.90;0.50;;;;;;;;;;5037566;28;20052;-72
2022/12/08 06:04:26;;;;;;;7.43;0.80;;;;;;;;;;5053286;28;20118;-72
2022/12/08 06:06:52;;;;;;;3.70;0.70;;;;;;;;;;5053586;28;20048;-72
2022/12/08 06:09:18;;;;;;;6.18;0.65;;;;;;;;;;5053640;28;20072;-72
2022/12/08 06:11:46;;;;;;;5.20;0.80;;;;;;;;;;5054565;28;20425;-72
2022/12/08 06:14:12;;;;;;;4.18;0.90;;;;;;;;;;5053788;28;20616;-72
2022/12/08 06:16:38;;;;;;;4.95;0.80;;;;;;;;;;5053654;28;20033;-72
2022/12/08 06:19:04;;;;;;;3.38;0.80;;;;;;;;;;5036768;28;20029;-72
2022/12/08 06:21:30;;;;;;;2.95;0.55;;;;;;;;;;5053052;28;20046;-72
2022/12/08 06:23:56;;;;;;;2.80;0.50;;;;;;;;;;5037087;28;20047;-72
2022/12/08 06:26:23;;;;;;;3.95;0.65;;;;;;;;;;5053777;28;20512;-72
2022/12/08 06:28:49;;;;;;;5.40;0.70;;;;;;;;;;5052321;28;20041;-73
2022/12/08 06:31:23;;;;;;;2.97;0.60;;;;;;;;;;5053334;28;20041;-72
2022/12/08 06:33:49;;;;;;;4.43;0.85;;;;;;;;;;5046856;28;20481;-72
2022/12/08 06:36:16;;;;;;;4.68;0.90;;;;;;;;;;5053305;28;20102;-73
2022/12/08 06:38:42;;;;;;;4.22;0.90;;;;;;;;;;5053187;28;20528;-72
2022/12/08 06:41:11;;;;;;;2.33;0.63;;;;;;;;;;5054468;28;20486;-72
2022/12/08 06:43:40;;;;;;;3.38;0.63;;;;;;;;;;5052917;28;20044;-72
2022/12/08 06:46:08;;;;;;;2.45;0.60;;;;;;;;;;5054564;28;20033;-72
2022/12/08 06:48:34;;;;;;;6.60;0.70;;;;;;;;;;5052969;28;20509;-72
2022/12/08 06:51:10;;;;;;;4.65;0.80;;;;;;;;;;5054593;28;20077;-72
2022/12/08 06:53:36;;;;;;;3.22;0.50;;;;;;;;;;5052787;28;20051;-72
2022/12/08 06:56:03;;;;;;;3.30;0.40;;;;;;;;;;5036564;28;20077;-72
2022/12/08 06:58:32;;;;;;;6.75;0.60;;;;;;;;;;5054586;28;20068;-73
2022/12/08 07:01:05;;;;;;;5.57;0.70;;;;;;;;;;5054488;28;20039;-72
2022/12/08 07:03:32;;;;;;;7.43;1.50;;;;;;;;;;5035862;28;20170;-72
2022/12/08 07:05:58;;;;;;;1.75;0.45;;;;;;;;;;5053024;28;20044;-72
2022/12/08 07:08:27;;;;;;;7.63;0.75;;;;;;;;;;5052820;28;20049;-72
2022/12/08 07:10:53;;;;;;;6.03;0.70;;;;;;;;;;5069191;28;20044;-73
2022/12/08 07:13:19;;;;;;;3.72;0.60;;;;;;;;;;5052971;28;20497;-73
2022/12/08 07:15:45;;;;;;;6.82;0.80;;;;;;;;;;5053681;28;20037;-72
2022/12/08 07:18:12;;;;;;;2.85;0.60;;;;;;;;;;5052793;28;20037;-72
2022/12/08 07:20:38;;;;;;;2.72;1.00;;;;;;;;;;5052370;28;20037;-72
2022/12/08 07:23:04;;;;;;;3.53;1.00;;;;;;;;;;5053963;28;20116;-72
2022/12/08 07:25:30;;;;;;;3.65;0.90;;;;;;;;;;5052551;28;20056;-73
2022/12/08 07:27:56;;;;;;;5.20;1.10;;;;;;;;;;5052251;28;20393;-72
2022/12/08 07:30:22;;;;;;;4.43;1.02;;;;;;;;;;5052160;28;20056;-73
2022/12/08 07:32:48;;;;;;;3.15;1.10;;;;;;;;;;5035332;28;20064;-72
2022/12/08 07:35:14;;;;;;;1.75;0.80;;;;;;;;;;5047036;28;20180;-72
2022/12/08 07:37:40;;;;;;;6.13;1.10;;;;;;;;;;5051513;28;20033;-73
2022/12/08 07:40:07;;;;;;;4.80;0.80;;;;;;;;;;5051569;28;20045;-73
2022/12/08 07:42:34;;;;;;;4.15;1.00;;;;;;;;;;5051544;28;20041;-73
2022/12/08 07:45:00;;;;;;;5.90;1.33;;;;;;;;;;5051545;28;20045;-73
2022/12/08 07:47:26;;;;;;;4.53;1.08;;;;;;;;;;5052209;28;20119;-73
2022/12/08 07:49:52;;;;;;;5.60;1.08;;;;;;;;;;5034801;28;20047;-73
2022/12/08 07:52:18;;;;;;;4.78;1.00;;;;;;;;;;5051859;28;20076;-72
2022/12/08 07:54:44;;;;;;;4.20;0.70;;;;;;;;;;5051073;28;20045;-73
2022/12/08 07:57:10;;;;;;;2.90;1.00;;;;;;;;;;5051669;28;20120;-73
2022/12/08 07:59:36;;;;;;;3.47;1.10;;;;;;;;;;5051973;28;20515;-72
2022/12/08 08:02:02;;;;;;;5.65;1.15;;;;;;;;;;5051119;28;20128;-72
2022/12/08 08:04:29;;;;;;;8.57;1.20;;;;;;;;;;5051634;28;20091;-72
2022/12/08 08:06:55;;;;;;;4.72;0.75;;;;;;;;;;5051463;28;20048;-73
2022/12/08 08:09:21;;;;;;;3.60;1.05;;;;;;;;;;5051346;28;20041;-72
2022/12/08 08:11:47;;;;;;;3.92;0.90;;;;;;;;;;5068022;28;20429;-72
2022/12/08 08:14:13;;;;;;;3.67;1.10;;;;;;;;;;5052828;28;20402;-72
2022/12/08 08:16:45;;;;;;;2.92;0.90;;;;;;;;;;5035116;28;20371;-72
2022/12/08 08:19:11;;;;;;;3.70;0.80;;;;;;;;;;5051543;28;20098;-72
2022/12/08 08:21:37;;;;;;;4.35;0.80;;;;;;;;;;5051246;28;20113;-72
2022/12/08 08:24:03;;;;;;;4.85;0.95;;;;;;;;;;5051166;28;20444;-72
2022/12/08 08:26:29;;;;;;;8.63;1.00;;;;;;;;;;5051527;28;20485;-73
2022/12/08 08:28:55;;;;;;;3.88;1.02;;;;;;;;;;5034587;28;20040;-73
2022/12/08 08:31:25;;;;;;;6.47;0.98;;;;;;;;;;5051225;28;20128;-72
2022/12/08 08:33:51;;;;;;;4.05;1.33;;;;;;;;;;5061439;28;20037;-72
2022/12/08 08:36:18;;;;;;;2.22;0.90;;;;;;;;;;5051006;28;20056;-73
2022/12/08 08:38:44;;;;;;;6.45;1.20;;;;;;;;;;5050765;28;20076;-72
2022/12/08 08:41:10;;;;;;;5.45;1.00;;;;;;;;;;5051150;28;20397;-72
2022/12/08 08:43:36;;;;;;;3.70;1.25;;;;;;;;;;5051227;28;20120;-72
2022/12/08 08:46:03;;;;;;;6.97;1.58;;;;;;;;;;5051868;28;20380;-73
2022/12/08 08:48:30;;;;;;;6.97;1.48;;;;;;;;;;5051082;28;20076;-73
2022/12/08 08:50:56;;;;;;;6.10;1.52;;;;;;;;;;5050568;28;20127;-72
2022/12/08 08:53:22;;;;;;;10.98;1.80;;;;;;;;;;5067559;28;20489;-72
2022/12/08 08:55:49;;;;;;;5.90;1.80;;;;;;;;;;5033708;28;20124;-73
2022/12/08 08:58:15;;;;;;;5.30;1.73;;;;;;;;;;5050596;28;20044;-73
2022/12/08 09:00:41;;;;;;;5.88;1.73;;;;;;;;;;5051100;28;20497;-72
2022/12/08 09:03:07;;;;;;;4.65;1.95;;;;;;;;;;5067088;28;20130;-73
2022/12/08 09:05:33;;;;;;;8.25;1.77;;;;;;;;;;5050985;28;20094;-73
2022/12/08 09:07:59;;;;;;;6.47;2.15;;;;;;;;;;5050434;28;20044;-73
2022/12/08 09:10:25;;;;;;;9.25;1.95;;;;;;;;;;5050851;28;20047;-73
2022/12/08 09:12:51;;;;;;;7.75;2.22;;;;;;;;;;5034009;28;20052;-73
2022/12/08 09:15:19;;;;;;;8.32;1.95;;;;;;;;;;5052393;28;20045;-73
2022/12/08 09:17:45;;;;;;;5.15;2.15;;;;;;;;;;5050965;28;20037;-73
2022/12/08 09:20:11;;;;;;;4.90;1.85;;;;;;;;;;5051787;28;20037;-73
2022/12/08 09:22:37;;;;;;;4.75;1.70;;;;;;;;;;5050617;28;20043;-73
2022/12/08 09:25:04;;;;;;;4.68;1.60;;;;;;;;;;5050392;28;20041;-73
2022/12/08 09:27:30;;;;;;;7.88;1.65;;;;;;;;;;5050419;28;20049;-73
2022/12/08 09:29:56;;;;;;;5.90;2.10;;;;;;;;;;5050282;28;20045;-73
2022/12/08 09:32:22;;;;;;;5.88;2.00;;;;;;;;;;5034091;28;20166;-73
2022/12/08 09:34:48;;;;;;;7.65;1.70;;;;;;;;;;5044246;28;20045;-71
2022/12/08 09:37:15;;;;;;;6.57;2.30;;;;;;;;;;5050294;28;20408;-71
2022/12/08 09:39:41;;;;;;;5.75;1.77;;;;;;;;;;5033730;28;20041;-72
2022/12/08 09:42:07;;;;;;;8.18;2.00;;;;;;;;;;5049727;28;20052;-72
2022/12/08 09:44:45;;;;;;;9.05;2.20;;;;;;;;;;5050527;28;20541;-72
2022/12/08 09:47:22;;;;;;;6.15;2.28;;;;;;;;;;5050259;28;20406;-73
2022/12/08 09:50:02;;;;;;;5.88;2.28;;;;;;;;;;5033702;28;20079;-73
2022/12/08 09:52:31;;;;;;;6.97;1.75;;;;;;;;;;5050164;28;20084;-73
2022/12/08 09:54:59;;;;;;;5.40;1.60;;;;;;;;;;5050000;28;20364;-73
2022/12/08 09:57:26;;;;;;;5.68;1.50;;;;;;;;;;5051362;28;20095;-72
2022/12/08 09:59:57;;;;;;;4.68;1.40;;;;;;;;;;5051526;28;20437;-73
2022/12/08 10:02:25;;;;;;;4.18;1.48;;;;;;;;;;5033482;28;20045;-72
2022/12/08 10:04:53;;;;;;;3.70;1.27;;;;;;;;;;5052979;28;20060;-72
2022/12/08 10:07:38;;;;;;;5.55;1.25;;;;;;;;;;5037204;28;20067;-72
2022/12/08 10:10:21;;;;;;;8.70;1.58;;;;;;;;;;5053250;28;20132;-72
2022/12/08 10:12:59;;;;;;;6.60;1.63;;;;;;;;;;5053574;28;20048;-72
2022/12/08 10:15:29;;;;;;;7.10;1.48;;;;;;;;;;5053591;28;20048;-72
2022/12/08 10:17:57;;;;;;;8.43;1.80;;;;;;;;;;5036917;28;20037;-72
2022/12/08 10:20:25;;;;;;;4.10;1.48;;;;;;;;;;5053556;28;20044;-72
2022/12/08 10:22:55;;;;;;;7.38;2.33;;;;;;;;;;5055052;28;20025;-72
2022/12/08 10:25:32;;;;;;;7.35;2.15;;;;;;;;;;5053445;28;20045;-72
2022/12/08 10:27:58;;;;;;;6.95;2.00;;;;;;;;;;5052885;28;20120;-72
2022/12/08 10:30:25;;;;;;;5.70;2.50;;;;;;;;;;5037139;28;20554;-72
2022/12/08 10:32:52;;;;;;;8.68;2.67;;;;;;;;;;5053640;28;20120;-72
2022/12/08 10:35:19;;;;;;;6.90;2.75;;;;;;;;;;5030167;28;20049;-72
2022/12/08 10:38:05;;;;;;;12.95;2.72;;;;;;;;;;5054943;28;20052;-72
2022/12/08 10:40:35;;;;;;;7.68;2.85;;;;;;;;;;5054848;28;20037;-72
2022/12/08 10:43:04;;;;;;;9.40;3.35;;;;;;;;;;5054053;28;20079;-72
2022/12/08 10:45:40;;;;;;;8.38;3.53;;;;;;;;;;5054794;28;20079;-72
2022/12/08 10:48:13;;;;;;;6.70;3.50;;;;;;;;;;5052591;28;20044;-72
2022/12/08 10:50:55;;;;;;;10.35;3.83;;;;;;;;;;5053184;28;20048;-72
2022/12/08 10:53:29;;;;;;;7.85;3.75;;;;;;;;;;5052520;28;20136;-73
2022/12/08 10:56:01;;;;;;;9.75;3.97;;;;;;;;;;5052981;28;20045;-72
2022/12/08 10:58:32;;;;;;;14.43;4.40;;;;;;;;;;5052670;28;20040;-72
2022/12/08 11:01:01;;;;;;;11.43;4.72;;;;;;;;;;5052915;28;20159;-72
2022/12/08 11:03:32;;;;;;;11.75;4.25;;;;;;;;;;5052461;28;20049;-72
2022/12/08 11:05:59;;;;;;;7.93;3.97;;;;;;;;;;5052820;28;20056;-72
2022/12/08 11:08:26;;;;;;;12.30;4.45;;;;;;;;;;5052382;28;20493;-72
2022/12/08 11:10:52;;;;;;;7.63;4.32;;;;;;;;;;5052742;28;20048;-72
2022/12/08 11:13:20;;;;;;;8.52;4.40;;;;;;;;;;5051946;28;20066;-73
2022/12/08 11:15:47;;;;;;;9.82;4.15;;;;;;;;;;5052446;28;20071;-72
2022/12/08 11:18:42;;;;;;;9.38;4.47;;;;;;;;;;5052364;28;20045;-72
2022/12/08 11:21:14;;;;;;;10.65;4.38;;;;;;;;;;5064577;28;20048;-72
2022/12/08 11:23:41;;;;;;;8.48;4.93;;;;;;;;;;5035588;28;20044;-72
2022/12/08 11:26:19;;;;;;;12.63;4.85;;;;;;;;;;5053623;28;20055;-72
2022/12/08 11:28:45;;;;;;;7.25;3.90;;;;;;;;;;5052067;28;20128;-72
2022/12/08 11:31:32;;;;;;;9.88;4.22;;;;;;;;;;5052198;28;20476;-72
2022/12/08 11:33:58;;;;;;;8.05;4.15;;;;;;;;;;5079050;28;20033;-72
2022/12/08 11:36:25;;;;;;;9.77;5.18;;;;;;;;;;5053375;28;20051;-72
2022/12/08 11:38:55;;;;;;;8.45;4.70;;;;;;;;;;5053712;28;20037;-72
2022/12/08 11:41:23;;;;;;;8.45;4.97;;;;;;;;;;5052938;28;20064;-72
2022/12/08 11:44:01;;;;;;;12.35;5.22;;;;;;;;;;5053165;28;20546;-73
2022/12/08 11:46:42;;;;;;;10.15;5.20;;;;;;;;;;5051659;28;20044;-72
2022/12/08 11:49:13;;;;;;;13.23;5.38;;;;;;;;;;5051442;28;20048;-72
2022/12/08 11:51:41;;;;;;;20.67;5.60;;;;;;;;;;5051917;28;20044;-72
2022/12/08 11:54:29;;;;;;;10.27;4.55;;;;;;;;;;5035395;28;20505;-72
2022/12/08 11:56:56;;;;;;;11.90;5.50;;;;;;;;;;5051821;28;20043;-72
2022/12/08 11:59:38;;;;;;;12.07;5.95;;;;;;;;;;5051472;28;20059;-72
2022/12/08 12:02:05;;;;;;;11.73;5.10;;;;;;;;;;5051902;28;20405;-73
2022/12/08 12:04:34;;;;;;;10.90;4.75;;;;;;;;;;5051160;28;20053;-72
2022/12/08 12:07:06;;;;;;;5.68;3.33;;;;;;;;;;5034943;28;20115;-72
2022/12/08 12:09:32;;;;;;;7.95;3.20;;;;;;;;;;5051258;28;20068;-73
2022/12/08 12:12:17;;;;;;;6.97;2.60;;;;;;;;;;5051517;28;20040;-73
2022/12/08 12:14:43;;;;;;;5.28;2.20;;;;;;;;;;5034852;28;20500;-72
2022/12/08 12:17:30;;;;;;;7.47;2.10;;;;;;;;;;5051331;28;20041;-72
2022/12/08 12:20:00;;;;;;;11.70;2.00;;;;;;;;;;5084746;28;20116;-72
2022/12/08 12:22:29;;;;;;;7.85;2.20;;;;;;;;;;5050890;28;20037;-72
2022/12/08 12:24:55;;;;;;;5.63;1.80;;;;;;;;;;5051594;28;20094;-72
2022/12/08 12:27:27;;;;;;;5.65;1.60;;;;;;;;;;5050180;28;20124;-72
2022/12/08 12:29:55;;;;;;;6.15;1.77;;;;;;;;;;5051467;28;20544;-72
2022/12/08 12:32:22;;;;;;;6.63;1.42;;;;;;;;;;5050778;28;20047;-72
2022/12/08 12:34:48;;;;;;;6.00;1.83;;;;;;;;;;5061561;28;20490;-72
2022/12/08 12:37:16;;;;;;;4.18;1.40;;;;;;;;;;5050687;28;20037;-73
2022/12/08 12:40:02;;;;;;;9.55;1.50;;;;;;;;;;5051214;28;20112;-72
2022/12/08 12:42:37;;;;;;;4.72;1.67;;;;;;;;;;5050876;28;20045;-72
2022/12/08 12:45:26;;;;;;;3.63;1.30;;;;;;;;;;5051128;28;20052;-72
2022/12/08 12:47:55;;;;;;;4.57;1.20;;;;;;;;;;5081827;28;20049;-72
2022/12/08 12:50:33;;;;;;;7.95;1.88;;;;;;;;;;5050472;28;20044;-72
2022/12/08 12:53:03;;;;;;;5.40;1.85;;;;;;;;;;5034339;28;20049;-73
2022/12/08 12:55:49;;;;;;;6.95;1.50;;;;;;;;;;5033753;28;20045;-72
2022/12/08 12:58:34;;;;;;;4.68;1.58;;;;;;;;;;5051208;28;20041;-71
2022/12/08 13:01:12;;;;;;;4.80;1.93;;;;;;;;;;5050750;28;20053;-72
2022/12/08 13:03:46;;;;;;;7.95;3.00;;;;;;;;;;5050379;28;20048;-72
2022/12/08 13:06:13;;;;;;;6.53;2.55;;;;;;;;;;5051391;28;20064;-72
2022/12/08 13:08:41;;;;;;;6.63;1.77;;;;;;;;;;5050610;28;20044;-72
2022/12/08 13:11:09;;;;;;;5.68;1.70;;;;;;;;;;5051187;28;20037;-72
2022/12/08 13:13:39;;;;;;;4.68;1.80;;;;;;;;;;5050458;28;20135;-77
2022/12/08 13:16:17;;;;;;;6.85;1.80;;;;;;;;;;5067212;28;20049;-77
2022/12/08 13:18:54;;;;;;;8.85;1.77;;;;;;;;;;5050252;28;20144;-77
2022/12/08 13:21:31;;;;;;;6.43;1.10;;;;;;;;;;5034729;28;20041;-78
2022/12/08 13:24:12;;;;;;;4.60;1.40;;;;;;;;;;5050714;28;20123;-77
2022/12/08 13:26:44;;;;;;;6.03;1.40;;;;;;;;;;5050234;28;20037;-77
2022/12/08 13:29:15;;;;;;;3.95;1.17;;;;;;;;;;5050829;28;20525;-77
2022/12/08 13:31:56;;;;;;;5.03;1.50;;;;;;;;;;5050127;28;20063;-77
2022/12/08 13:34:22;;;;;;;4.47;1.27;;;;;;;;;;5051490;28;20126;-77
2022/12/08 13:36:59;;;;;;;2.85;0.93;;;;;;;;;;5050542;28;20067;-77
2022/12/08 13:39:45;;;;;;;4.30;1.13;;;;;;;;;;5051549;28;20041;-77
2022/12/08 13:42:11;;;;;;;3.72;0.90;;;;;;;;;;5071222;28;20513;-77
2022/12/08 13:44:40;;;;;;;2.60;0.98;;;;;;;;;;5054074;28;20128;-77
2022/12/08 13:47:09;;;;;;;2.90;0.90;;;;;;;;;;5054417;28;20060;-77
2022/12/08 13:49:49;;;;;;;3.50;1.20;;;;;;;;;;5037322;28;20048;-77
2022/12/08 13:52:18;;;;;;;3.50;1.38;;;;;;;;;;5054213;28;20055;-76
2022/12/08 13:54:44;;;;;;;4.07;1.40;;;;;;;;;;5054163;28;20467;-76
2022/12/08 13:57:20;;;;;;;5.28;1.70;;;;;;;;;;5070980;28;20044;-76
2022/12/08 13:59:46;;;;;;;5.70;1.80;;;;;;;;;;5055101;28;20075;-76
2022/12/08 14:02:12;;;;;;;3.05;1.70;;;;;;;;;;5053955;28;20045;-76
2022/12/08 14:04:43;;;;;;;4.07;1.80;;;;;;;;;;5053663;28;20064;-76
2022/12/08 14:07:10;;;;;;;4.22;1.75;;;;;;;;;;5037525;28;20073;-77
2022/12/08 14:09:37;;;;;;;4.82;1.85;;;;;;;;;;5053865;28;20094;-76
2022/12/08 14:12:03;;;;;;;6.63;1.70;;;;;;;;;;5054286;28;20032;-76
2022/12/08 14:14:33;;;;;;;5.60;1.73;;;;;;;;;;5053455;28;20044;-76
2022/12/08 14:17:05;;;;;;;3.50;1.60;;;;;;;;;;5053844;28;20052;-76
2022/12/08 14:19:32;;;;;;;6.60;1.80;;;;;;;;;;5053514;28;20063;-77
2022/12/08 14:21:59;;;;;;;5.50;1.65;;;;;;;;;;5053568;28;20502;-76
2022/12/08 14:24:26;;;;;;;7.45;1.70;;;;;;;;;;5053811;28;20033;-76
2022/12/08 14:26:54;;;;;;;6.75;1.70;;;;;;;;;;5053792;28;20563;-76
2022/12/08 14:29:31;;;;;;;4.88;1.60;;;;;;;;;;5055106;28;20083;-77
2022/12/08 14:31:57;;;;;;;4.35;1.30;;;;;;;;;;5036754;28;20036;-77
2022/12/08 14:34:23;;;;;;;5.75;1.20;;;;;;;;;;5048378;28;20037;-76
2022/12/08 14:36:49;;;;;;;5.38;1.30;;;;;;;;;;5053395;28;20440;-76
2022/12/08 14:39:17;;;;;;;6.07;1.48;;;;;;;;;;5053407;28;20095;-76
2022/12/08 14:41:57;;;;;;;7.30;1.42;;;;;;;;;;5069912;28;20478;-77
2022/12/08 14:44:24;;;;;;;5.05;1.35;;;;;;;;;;5054838;28;20394;-77
2022/12/08 14:47:04;;;;;;;6.10;1.30;;;;;;;;;;5053038;28;20608;-77
2022/12/08 14:49:37;;;;;;;4.32;1.35;;;;;;;;;;5052570;28;20044;-77
2022/12/08 14:52:08;;;;;;;3.83;1.40;;;;;;;;;;5053340;28;20502;-77
2022/12/08 14:54:34;;;;;;;4.65;1.52;;;;;;;;;;5036119;28;20140;-77
2022/12/08 14:57:01;;;;;;;8.15;1.30;;;;;;;;;;5036385;28;20049;-76
2022/12/08 14:59:31;;;;;;;3.30;1.40;;;;;;;;;;5053275;28;20505;-76